createdAt,value
2018-03-16T00:02:04.816Z,13.43
2018-03-16T00:04:33.130Z,13.67
2018-03-16T00:07:00.903Z,13.60
2018-03-16T00:09:28.362Z,15.90
2018-03-16T00:11:56.121Z,12.23
2018-03-16T00:14:23.582Z,14.20
2018-03-16T00:16:51.052Z,12.73
2018-03-16T00:19:18.505Z,13.73
2018-03-16T00:21:45.975Z,13.37
2018-03-16T00:24:13.447Z,13.77
2018-03-16T00:26:40.908Z,13.00
2018-03-16T00:29:08.381Z,14.10
2018-03-16T00:31:35.852Z,14.20
2018-03-16T00:34:04.080Z,13.13
2018-03-16T00:36:31.552Z,13.17
2018-03-16T00:38:59.033Z,13.93
2018-03-16T00:41:27.465Z,13.40
2018-03-16T00:43:54.971Z,14.43
2018-03-16T00:46:23.202Z,13.33
2018-03-16T00:48:50.665Z,13.40
2018-03-16T00:51:18.407Z,13.67
2018-03-16T00:53:45.866Z,14.87
2018-03-16T00:56:13.329Z,14.23
2018-03-16T00:58:40.794Z,16.30
2018-03-16T01:01:08.268Z,13.63
2018-03-16T01:03:35.999Z,14.10
2018-03-16T01:06:03.463Z,12.90
2018-03-16T01:08:30.938Z,14.00
2018-03-16T01:10:58.415Z,13.50
2018-03-16T01:13:25.917Z,13.47
2018-03-16T01:15:53.621Z,13.33
2018-03-16T01:18:21.083Z,12.67
2018-03-16T01:20:49.533Z,13.40
2018-03-16T01:23:16.993Z,11.63
2018-03-16T01:25:44.450Z,12.27
2018-03-16T01:28:11.916Z,13.00
2018-03-16T01:30:39.381Z,12.03
2018-03-16T01:33:07.123Z,10.97
2018-03-16T01:35:34.888Z,13.10
2018-03-16T01:38:02.351Z,11.47
2018-03-16T01:40:29.806Z,10.13
2018-03-16T01:42:57.264Z,11.93
2018-03-16T01:45:24.720Z,9.27
2018-03-16T01:47:52.182Z,11.37
2018-03-16T01:50:19.643Z,9.83
2018-03-16T01:52:59.151Z,9.97
2018-03-16T01:55:26.598Z,9.77
2018-03-16T01:57:54.822Z,9.73
2018-03-16T02:00:22.286Z,8.83
2018-03-16T02:02:49.745Z,12.97
2018-03-16T02:05:17.198Z,9.40
2018-03-16T02:07:44.655Z,10.70
2018-03-16T02:10:12.119Z,10.17
2018-03-16T02:12:39.601Z,10.07
2018-03-16T02:15:07.055Z,9.77
2018-03-16T02:17:34.526Z,10.17
2018-03-16T02:20:02.747Z,9.33
2018-03-16T02:22:30.986Z,9.77
2018-03-16T02:24:59.205Z,9.03
2018-03-16T02:27:26.667Z,9.10
2018-03-16T02:29:54.131Z,9.30
2018-03-16T02:32:21.578Z,9.30
2018-03-16T02:34:49.051Z,9.37
2018-03-16T02:37:16.723Z,8.73
2018-03-16T02:39:44.181Z,8.97
2018-03-16T02:42:11.636Z,9.03
2018-03-16T02:44:39.089Z,8.93
2018-03-16T02:47:06.550Z,9.80
2018-03-16T02:49:33.994Z,9.43
2018-03-16T02:52:01.446Z,9.43
2018-03-16T02:54:28.907Z,9.27
2018-03-16T02:56:56.373Z,8.23
2018-03-16T02:59:23.829Z,8.50
2018-03-16T03:01:51.276Z,8.00
2018-03-16T03:04:18.735Z,8.57
2018-03-16T03:06:46.268Z,8.20
2018-03-16T03:09:13.652Z,7.63
2018-03-16T03:11:41.123Z,8.23
2018-03-16T03:14:08.573Z,8.50
2018-03-16T03:16:36.035Z,8.23
2018-03-16T03:19:03.486Z,8.67
2018-03-16T03:21:30.943Z,7.40
2018-03-16T03:23:58.401Z,7.33
2018-03-16T03:26:25.850Z,6.70
2018-03-16T03:28:53.314Z,7.03
2018-03-16T03:31:20.766Z,6.90
2018-03-16T03:33:48.445Z,7.17
2018-03-16T03:36:15.898Z,7.60
2018-03-16T03:38:43.353Z,7.00
2018-03-16T03:41:10.816Z,7.70
2018-03-16T03:43:38.299Z,7.47
2018-03-16T03:46:06.522Z,7.07
2018-03-16T03:48:33.974Z,6.83
2018-03-16T03:51:01.436Z,6.67
2018-03-16T03:53:29.179Z,6.00
2018-03-16T03:55:56.632Z,6.60
2018-03-16T03:58:24.110Z,5.90
2018-03-16T04:00:51.562Z,5.90
2018-03-16T04:03:19.019Z,6.53
2018-03-16T04:05:46.475Z,6.03
2018-03-16T04:08:13.949Z,5.73
2018-03-16T04:10:41.625Z,5.93
2018-03-16T04:13:09.080Z,5.80
2018-03-16T04:15:36.551Z,6.13
2018-03-16T04:18:03.993Z,5.60
2018-03-16T04:20:31.458Z,5.23
2018-03-16T04:22:58.968Z,6.90
2018-03-16T04:25:26.431Z,5.37
2018-03-16T04:27:53.893Z,5.10
2018-03-16T04:30:21.352Z,5.50
2018-03-16T04:32:49.026Z,6.07
2018-03-16T04:35:16.481Z,5.30
2018-03-16T04:37:43.945Z,5.50
2018-03-16T04:40:11.406Z,5.30
2018-03-16T04:42:38.856Z,5.23
2018-03-16T04:45:06.313Z,5.33
2018-03-16T04:47:33.989Z,6.03
2018-03-16T04:50:01.449Z,5.57
2018-03-16T04:52:28.907Z,4.90
2018-03-16T04:54:56.373Z,5.17
2018-03-16T04:57:23.843Z,7.40
2018-03-16T04:59:52.064Z,6.27
2018-03-16T05:02:19.526Z,5.20
2018-03-16T05:04:46.984Z,5.53
2018-03-16T05:07:14.438Z,6.93
2018-03-16T05:09:41.908Z,6.00
2018-03-16T05:12:09.366Z,5.47
2018-03-16T05:14:36.823Z,7.13
2018-03-16T05:17:04.301Z,5.57
2018-03-16T05:19:31.762Z,5.13
2018-03-16T05:21:59.478Z,4.93
2018-03-16T05:24:26.934Z,5.63
2018-03-16T05:26:54.402Z,5.27
2018-03-16T05:29:21.856Z,5.20
2018-03-16T05:31:49.318Z,5.00
2018-03-16T05:34:16.770Z,4.67
2018-03-16T05:36:44.229Z,4.90
2018-03-16T05:39:11.686Z,4.43
2018-03-16T05:41:39.154Z,6.97
2018-03-16T05:44:06.616Z,5.50
2018-03-16T05:46:34.067Z,5.07
2018-03-16T05:49:01.527Z,5.53
2018-03-16T05:51:28.974Z,5.73
2018-03-16T05:53:56.445Z,4.60
2018-03-16T05:56:23.905Z,5.30
2018-03-16T05:58:51.363Z,4.30
2018-03-16T06:01:18.824Z,4.53
2018-03-16T06:03:46.275Z,4.40
2018-03-16T06:06:13.954Z,7.13
2018-03-16T06:08:41.411Z,3.50
2018-03-16T06:11:08.871Z,3.90
2018-03-16T06:13:36.323Z,3.70
2018-03-16T06:16:03.790Z,3.67
2018-03-16T06:18:31.467Z,3.73
2018-03-16T06:20:59.690Z,3.37
2018-03-16T06:23:27.155Z,5.17
2018-03-16T06:25:54.602Z,3.43
2018-03-16T06:28:22.093Z,3.30
2018-03-16T06:30:49.815Z,3.47
2018-03-16T06:33:17.578Z,3.50
2018-03-16T06:35:45.035Z,3.50
2018-03-16T06:38:12.496Z,3.90
2018-03-16T06:40:39.958Z,9.70
2018-03-16T06:43:07.410Z,3.53
2018-03-16T06:45:34.882Z,3.50
2018-03-16T06:48:02.329Z,3.40
2018-03-16T06:50:30.011Z,3.67
2018-03-16T06:52:57.460Z,4.13
2018-03-16T06:55:24.918Z,3.33
2018-03-16T06:57:52.958Z,3.27
2018-03-16T07:00:20.403Z,4.00
2018-03-16T07:02:48.621Z,3.30
2018-03-16T07:05:16.078Z,3.70
2018-03-16T07:07:43.534Z,3.60
2018-03-16T07:10:10.988Z,4.43
2018-03-16T07:12:38.434Z,3.40
2018-03-16T07:15:18.120Z,4.83
2018-03-16T07:17:45.566Z,3.70
2018-03-16T07:20:14.544Z,3.33
2018-03-16T07:22:42.005Z,3.63
2018-03-16T07:25:09.752Z,3.30
2018-03-16T07:27:37.506Z,4.10
2018-03-16T07:30:04.961Z,4.03
2018-03-16T07:32:32.621Z,3.80
2018-03-16T07:35:00.094Z,3.13
2018-03-16T07:37:27.549Z,3.67
2018-03-16T07:39:54.995Z,3.73
2018-03-16T07:42:22.462Z,3.83
2018-03-16T07:44:49.927Z,3.80
2018-03-16T07:47:17.390Z,3.50
2018-03-16T07:49:44.850Z,4.20
2018-03-16T07:52:12.329Z,4.00
2018-03-16T07:54:39.843Z,3.67
2018-03-16T07:57:07.854Z,4.03
2018-03-16T07:59:35.478Z,3.07
2018-03-16T08:02:03.603Z,5.03
2018-03-16T08:04:36.434Z,3.93
2018-03-16T08:07:03.890Z,3.10
2018-03-16T08:09:31.354Z,4.23
2018-03-16T08:11:58.814Z,6.07
2018-03-16T08:14:26.267Z,3.00
2018-03-16T08:16:53.925Z,2.67
2018-03-16T08:19:21.382Z,3.67
2018-03-16T08:21:48.842Z,4.70
2018-03-16T08:24:16.303Z,2.20
2018-03-16T08:26:43.765Z,2.50
2018-03-16T08:29:11.228Z,3.40
2018-03-16T08:31:39.438Z,2.50
2018-03-16T08:34:06.900Z,3.03
2018-03-16T08:36:41.991Z,2.83
2018-03-16T08:39:09.566Z,3.07
2018-03-16T08:41:37.025Z,2.40
2018-03-16T08:44:04.495Z,3.43
2018-03-16T08:46:31.982Z,2.00
2018-03-16T08:49:00.246Z,4.27
2018-03-16T08:51:28.484Z,3.90
2018-03-16T08:53:55.935Z,2.30
2018-03-16T08:56:23.419Z,4.83
2018-03-16T08:58:50.882Z,1.67
2018-03-16T09:01:18.335Z,3.10
2018-03-16T09:03:49.635Z,1.70
2018-03-16T09:06:17.399Z,2.07
2018-03-16T09:08:48.193Z,2.83
2018-03-16T09:11:16.423Z,1.67
2018-03-16T09:13:43.900Z,1.53
2018-03-16T09:16:11.630Z,1.77
2018-03-16T09:18:39.112Z,2.53
2018-03-16T09:21:14.662Z,2.53
2018-03-16T09:23:42.979Z,2.30
2018-03-16T09:26:11.240Z,2.23
2018-03-16T09:28:39.483Z,3.83
2018-03-16T09:31:06.980Z,2.53
2018-03-16T09:33:35.222Z,5.17
2018-03-16T09:36:03.333Z,2.60
2018-03-16T09:38:31.135Z,1.67
2018-03-16T09:40:58.590Z,3.10
2018-03-16T09:43:26.055Z,1.93
2018-03-16T09:45:53.528Z,1.23
2018-03-16T09:48:20.996Z,3.40
2018-03-16T09:50:48.455Z,2.10
2018-03-16T09:53:25.802Z,2.57
2018-03-16T09:55:53.270Z,1.60
2018-03-16T09:58:24.675Z,4.83
2018-03-16T10:00:52.154Z,3.43
2018-03-16T10:03:22.534Z,1.80
2018-03-16T10:05:50.007Z,2.07
2018-03-16T10:08:17.463Z,1.70
2018-03-16T10:10:44.934Z,2.60
2018-03-16T10:13:12.415Z,4.73
2018-03-16T10:15:39.870Z,5.07
2018-03-16T10:18:07.342Z,3.57
2018-03-16T10:20:34.802Z,1.70
2018-03-16T10:23:02.274Z,2.50
2018-03-16T10:25:29.722Z,1.43
2018-03-16T10:27:57.204Z,1.50
2018-03-16T10:30:26.265Z,5.10
2018-03-16T10:32:53.732Z,3.07
2018-03-16T10:35:21.186Z,1.97
2018-03-16T10:37:48.998Z,2.53
2018-03-16T10:40:16.467Z,3.43
2018-03-16T10:42:43.935Z,3.33
2018-03-16T10:45:12.441Z,3.67
2018-03-16T10:47:43.431Z,4.53
2018-03-16T10:50:10.900Z,2.57
2018-03-16T10:52:43.175Z,3.90
2018-03-16T10:55:11.407Z,1.80
2018-03-16T10:57:39.150Z,4.17
2018-03-16T11:00:06.625Z,3.10
2018-03-16T11:02:39.720Z,2.10
2018-03-16T11:08:20.072Z,2.97
2018-03-16T11:10:48.339Z,1.80
2018-03-16T11:13:16.673Z,5.83
2018-03-16T11:15:44.228Z,2.20
2018-03-16T11:18:11.747Z,4.17
2018-03-16T11:20:39.273Z,2.13
2018-03-16T11:23:06.774Z,2.20
2018-03-16T11:25:34.288Z,2.80
2018-03-16T11:28:02.634Z,3.30
2018-03-16T11:30:30.194Z,2.90
2018-03-16T11:32:57.669Z,2.20
2018-03-16T11:35:25.184Z,3.13
2018-03-16T11:37:52.698Z,1.80
2018-03-16T11:40:20.983Z,3.47
2018-03-16T11:42:48.496Z,2.27
2018-03-16T11:45:16.002Z,2.13
2018-03-16T11:47:43.547Z,3.37
2018-03-16T11:50:11.111Z,3.23
2018-03-16T11:52:39.392Z,2.83
2018-03-16T11:55:06.925Z,3.03
2018-03-16T11:57:34.436Z,3.17
2018-03-16T12:00:01.962Z,2.57
2018-03-16T12:02:30.246Z,2.33
2018-03-16T12:04:57.772Z,2.10
2018-03-16T12:07:25.286Z,2.60
2018-03-16T12:09:52.799Z,2.83
2018-03-16T12:14:54.992Z,4.20
2018-03-16T12:17:22.522Z,3.70
2018-03-16T12:19:50.043Z,2.97
2018-03-16T12:22:17.579Z,2.70
2018-03-16T12:24:45.111Z,3.33
2018-03-16T12:27:13.385Z,3.90
2018-03-16T12:29:41.654Z,2.97
2018-03-16T12:32:09.942Z,3.30
2018-03-16T12:34:38.223Z,4.57
2018-03-16T12:37:05.743Z,2.13
2018-03-16T12:39:33.326Z,2.50
2018-03-16T12:42:01.614Z,4.20
2018-03-16T12:44:29.161Z,3.13
2018-03-16T12:46:57.526Z,2.43
2018-03-16T12:49:25.885Z,2.07
2018-03-16T12:51:53.411Z,3.03
2018-03-16T12:54:20.954Z,2.50
2018-03-16T12:56:48.466Z,2.03
2018-03-16T12:59:16.763Z,3.13
2018-03-16T13:01:45.046Z,2.87
2018-03-16T13:04:12.600Z,3.57
2018-03-16T13:06:40.151Z,3.07
2018-03-16T13:09:08.419Z,2.33
2018-03-16T13:11:36.695Z,4.80
2018-03-16T13:14:04.964Z,4.17
2018-03-16T13:16:33.263Z,3.60
2018-03-16T13:19:00.767Z,2.57
2018-03-16T13:21:28.320Z,2.57
2018-03-16T13:23:55.833Z,3.27
2018-03-16T13:26:23.335Z,2.27
2018-03-16T13:28:50.849Z,2.73
2018-03-16T13:31:19.147Z,3.50
2018-03-16T13:33:46.665Z,2.70
2018-03-16T13:36:14.943Z,2.30
2018-03-16T13:38:43.224Z,2.97
2018-03-16T13:41:11.495Z,2.30
2018-03-16T13:43:39.034Z,2.47
2018-03-16T13:46:06.561Z,2.60
2018-03-16T13:48:34.064Z,3.83
2018-03-16T13:51:02.354Z,3.80
2018-03-16T13:53:29.908Z,4.13
2018-03-16T13:55:57.418Z,3.33
2018-03-16T13:58:24.927Z,2.03
2018-03-16T14:00:52.451Z,2.13
2018-03-16T14:03:20.787Z,2.20
2018-03-16T14:05:48.320Z,3.03
2018-03-16T14:08:15.866Z,3.57
2018-03-16T14:10:43.375Z,3.23
2018-03-16T14:13:10.889Z,2.27
2018-03-16T14:15:38.411Z,4.87
2018-03-16T14:18:06.719Z,4.03
2018-03-16T14:20:34.320Z,5.20
2018-03-16T14:23:01.838Z,3.53
2018-03-16T14:25:29.371Z,4.27
2018-03-16T14:27:56.945Z,2.57
2018-03-16T14:30:24.416Z,2.77
2018-03-16T14:32:51.939Z,3.33
2018-03-16T14:35:19.493Z,3.27
2018-03-16T14:37:47.017Z,5.10
2018-03-16T14:40:14.532Z,2.67
2018-03-16T14:42:42.076Z,2.90
2018-03-16T14:45:10.367Z,3.27
2018-03-16T14:47:37.875Z,2.93
2018-03-16T14:50:05.403Z,3.30
2018-03-16T14:52:32.916Z,2.63
2018-03-16T14:55:01.200Z,2.43
2018-03-16T14:57:28.761Z,2.70
2018-03-16T14:59:56.295Z,3.60
2018-03-16T15:02:23.815Z,3.30
2018-03-16T15:04:51.328Z,3.40
2018-03-16T15:07:19.619Z,2.10
2018-03-16T15:09:47.131Z,3.30
2018-03-16T15:12:15.438Z,2.70
2018-03-16T15:14:43.766Z,1.57
2018-03-16T15:17:11.283Z,2.57
2018-03-16T15:19:38.825Z,1.30
2018-03-16T15:22:07.102Z,3.43
2018-03-16T15:24:35.390Z,3.00
2018-03-16T15:27:02.921Z,2.70
2018-03-16T15:29:31.218Z,2.87
2018-03-16T15:31:58.737Z,3.37
2018-03-16T15:34:26.253Z,4.13
2018-03-16T15:36:53.776Z,3.03
2018-03-16T15:39:22.059Z,2.93
2018-03-16T15:41:50.362Z,1.90
2018-03-16T15:44:17.856Z,2.93
2018-03-16T15:46:45.563Z,2.57
2018-03-16T15:51:47.027Z,3.63
2018-03-16T15:54:14.556Z,3.50
2018-03-16T15:56:42.895Z,2.10
2018-03-16T15:59:10.496Z,2.20
2018-03-16T16:01:38.782Z,3.33
2018-03-16T16:04:07.067Z,3.23
2018-03-16T16:06:34.581Z,2.47
2018-03-16T16:09:02.113Z,2.77
2018-03-16T16:11:29.623Z,4.63
2018-03-16T16:13:57.177Z,3.20
2018-03-16T16:16:25.449Z,3.20
2018-03-16T16:18:53.741Z,5.00
2018-03-16T16:21:22.081Z,4.77
2018-03-16T16:23:49.600Z,4.33
2018-03-16T16:26:17.139Z,2.63
2018-03-16T16:28:44.782Z,4.33
2018-03-16T16:31:13.074Z,3.83
2018-03-16T16:33:40.606Z,3.43
2018-03-16T16:36:08.912Z,4.43
2018-03-16T16:38:36.445Z,3.37
2018-03-16T16:41:04.769Z,4.23
2018-03-16T16:43:32.288Z,3.87
2018-03-16T16:46:00.551Z,3.33
2018-03-16T16:48:28.848Z,3.63
2018-03-16T16:50:56.350Z,4.63
2018-03-16T16:53:23.924Z,3.13
2018-03-16T16:55:51.438Z,3.57
2018-03-16T16:58:18.951Z,4.97
2018-03-16T17:00:47.231Z,3.63
2018-03-16T17:03:15.523Z,4.10
2018-03-16T17:05:43.071Z,6.57
2018-03-16T17:08:10.664Z,6.37
2018-03-16T17:10:39.417Z,3.47
2018-03-16T17:13:07.694Z,4.47
2018-03-16T17:15:35.234Z,4.13
2018-03-16T17:18:02.750Z,6.10
2018-03-16T17:20:30.293Z,4.13
2018-03-16T17:22:57.830Z,3.50
2018-03-16T17:25:25.459Z,3.37
2018-03-16T17:27:53.040Z,5.33
2018-03-16T17:30:21.311Z,4.30
2018-03-16T17:32:49.584Z,3.63
2018-03-16T17:35:17.851Z,2.83
2018-03-16T17:37:46.139Z,3.67
2018-03-16T17:40:13.670Z,4.23
2018-03-16T17:42:41.975Z,3.37
2018-03-16T17:45:09.500Z,3.40
2018-03-16T17:47:37.002Z,3.10
2018-03-16T17:50:04.514Z,3.43
2018-03-16T17:52:32.016Z,4.73
2018-03-16T17:54:59.531Z,5.33
2018-03-16T17:57:27.066Z,3.63
2018-03-16T17:59:54.638Z,3.50
2018-03-16T18:02:22.221Z,5.20
2018-03-16T18:04:50.499Z,5.43
2018-03-16T18:07:18.784Z,4.23
2018-03-16T18:09:46.303Z,3.30
2018-03-16T18:12:13.815Z,3.20
2018-03-16T18:14:41.370Z,3.43
2018-03-16T18:17:09.685Z,5.83
2018-03-16T18:19:37.300Z,4.97
2018-03-16T18:22:04.811Z,4.93
2018-03-16T18:24:32.329Z,4.07
2018-03-16T18:26:59.915Z,4.17
2018-03-16T18:29:27.429Z,5.37
2018-03-16T18:31:54.965Z,4.87
2018-03-16T18:34:23.321Z,3.83
2018-03-16T18:36:50.860Z,4.27
2018-03-16T18:39:18.382Z,4.40
2018-03-16T18:41:45.901Z,3.13
2018-03-16T18:44:13.441Z,4.30
2018-03-16T18:46:40.965Z,4.43
2018-03-16T18:49:09.304Z,4.87
2018-03-16T18:51:37.597Z,4.27
2018-03-16T18:54:05.243Z,4.70
2018-03-16T18:56:33.610Z,5.63
2018-03-16T18:59:01.909Z,6.00
2018-03-16T19:01:29.485Z,5.63
2018-03-16T19:03:57.069Z,4.40
2018-03-16T19:06:24.579Z,5.50
2018-03-16T19:08:52.100Z,7.07
2018-03-16T19:11:19.633Z,8.43
2018-03-16T19:13:47.986Z,5.07
2018-03-16T19:16:15.494Z,6.60
2018-03-16T19:18:43.052Z,10.07
2018-03-16T19:21:10.557Z,7.20
2018-03-16T19:23:38.172Z,8.60
2018-03-16T19:26:05.758Z,6.53
2018-03-16T19:28:33.275Z,5.67
2018-03-16T19:31:00.805Z,4.90
2018-03-16T19:33:28.354Z,6.07
2018-03-16T19:35:55.877Z,6.60
2018-03-16T19:38:24.232Z,11.90
2018-03-16T19:40:51.740Z,6.07
2018-03-16T19:43:19.307Z,6.27
2018-03-16T19:45:46.884Z,7.67
2018-03-16T19:48:14.419Z,6.33
2018-03-16T19:50:41.987Z,8.50
2018-03-16T19:53:09.530Z,6.70
2018-03-16T19:55:37.195Z,7.30
2018-03-16T19:58:04.719Z,6.60
2018-03-16T20:00:33.037Z,7.13
2018-03-16T20:03:00.585Z,6.67
2018-03-16T20:05:28.147Z,8.77
2018-03-16T20:07:55.672Z,6.87
2018-03-16T20:10:23.946Z,9.90
2018-03-16T20:12:52.264Z,8.50
2018-03-16T20:15:19.790Z,7.90
2018-03-16T20:17:47.297Z,9.60
2018-03-16T20:20:14.816Z,8.43
2018-03-16T20:22:42.362Z,8.43
2018-03-16T20:25:09.837Z,6.53
2018-03-16T20:27:37.340Z,7.87
2018-03-16T20:30:04.915Z,7.83
2018-03-16T20:32:33.301Z,9.03
2018-03-16T20:35:01.582Z,9.97
2018-03-16T20:37:29.113Z,10.33
2018-03-16T20:39:57.400Z,11.93
2018-03-16T20:42:25.696Z,12.07
2018-03-16T20:44:53.248Z,10.37
2018-03-16T20:47:20.765Z,11.23
2018-03-16T20:49:48.280Z,13.63
2018-03-16T20:52:15.831Z,11.53
2018-03-16T20:54:43.357Z,12.23
2018-03-16T20:57:11.663Z,10.10
2018-03-16T20:59:39.173Z,10.03
2018-03-16T21:02:06.671Z,12.30
2018-03-16T21:04:34.190Z,9.80
2018-03-16T21:07:01.773Z,11.17
2018-03-16T21:09:30.096Z,9.00
2018-03-16T21:11:57.607Z,9.73
2018-03-16T21:14:25.148Z,10.80
2018-03-16T21:16:53.453Z,8.63
2018-03-16T21:19:20.966Z,7.90
2018-03-16T21:21:48.480Z,8.37
2018-03-16T21:24:16.026Z,9.33
2018-03-16T21:26:43.540Z,8.57
2018-03-16T21:29:11.072Z,8.17
2018-03-16T21:31:38.619Z,9.00
2018-03-16T21:34:06.230Z,6.87
2018-03-16T21:36:34.564Z,6.67
2018-03-16T21:39:02.117Z,8.93
2018-03-16T21:41:29.725Z,7.90
2018-03-16T21:43:58.003Z,8.13
2018-03-16T21:46:26.305Z,8.20
2018-03-16T21:48:53.884Z,6.97
2018-03-16T21:51:21.543Z,7.07
2018-03-16T21:53:49.082Z,8.60
2018-03-16T21:56:16.632Z,8.13
2018-03-16T21:58:44.162Z,6.73
2018-03-16T22:01:12.490Z,8.70
2018-03-16T22:03:40.016Z,6.57
2018-03-16T22:06:07.566Z,6.37
2018-03-16T22:08:35.926Z,6.87
2018-03-16T22:11:04.253Z,9.47
2018-03-16T22:13:31.876Z,7.93
2018-03-16T22:15:59.339Z,7.97
2018-03-16T22:18:26.918Z,8.23
2018-03-16T22:20:54.490Z,9.20
2018-03-16T22:23:22.046Z,8.10
2018-03-16T22:25:49.597Z,7.33
2018-03-16T22:28:17.175Z,9.67
2018-03-16T22:30:44.706Z,6.17
2018-03-16T22:33:12.327Z,7.20
2018-03-16T22:35:40.653Z,7.53
2018-03-16T22:38:08.267Z,8.27
2018-03-16T22:40:36.683Z,10.77
2018-03-16T22:43:04.235Z,6.97
2018-03-16T22:45:31.792Z,6.67
2018-03-16T22:47:59.317Z,6.77
2018-03-16T22:50:27.642Z,7.20
2018-03-16T22:52:55.260Z,9.23
2018-03-16T22:55:23.632Z,7.90
2018-03-16T22:57:51.965Z,9.00
2018-03-16T23:00:19.504Z,6.97
2018-03-16T23:02:47.059Z,8.07
2018-03-16T23:05:14.624Z,11.27
2018-03-16T23:07:42.156Z,7.83
2018-03-16T23:10:09.716Z,7.97
2018-03-16T23:12:37.249Z,7.17
2018-03-16T23:15:05.567Z,6.80
2018-03-16T23:17:33.080Z,7.47
2018-03-16T23:20:01.361Z,7.97
2018-03-16T23:22:29.647Z,6.97
2018-03-16T23:24:57.970Z,6.30
2018-03-16T23:27:25.561Z,7.27
2018-03-16T23:29:53.111Z,6.20
2018-03-16T23:32:20.636Z,6.77
2018-03-16T23:34:48.151Z,5.67
2018-03-16T23:37:15.731Z,6.40
2018-03-16T23:39:43.252Z,5.63
2018-03-16T23:42:11.562Z,8.47
2018-03-16T23:44:39.083Z,6.23
2018-03-16T23:47:07.385Z,8.67
2018-03-16T23:49:34.910Z,6.60
2018-03-16T23:52:03.223Z,7.97
2018-03-16T23:54:31.528Z,6.50
2018-03-16T23:56:59.045Z,6.90
2018-03-16T23:59:26.563Z,6.10
